Time;durP1;ratioP1;P1;durP2;ratioP2;P2;SDS_P1;SDS_P2;PMS_P1;PMS_P2;Temp;Humidity;BMP_temperature;BMP_pressure;BME280_temperature;BME280_humidity;BME280_pressure;Samples;Min_cycle;Max_cycle;Signal;HPM_P1;HPM_P2
2024/01/20 00:02:03;;;;;;;0.10;0.10;;;;;;;3.17;62.33;101364.47;4982757;28;20029;-89
2024/01/20 00:04:29;;;;;;;0.20;0.20;;;;;;;3.09;62.35;101367.94;5015653;28;20033;-89
2024/01/20 00:06:54;;;;;;;0.10;0.10;;;;;;;3.14;61.72;101381.50;5015751;28;20113;-89
2024/01/20 00:09:20;;;;;;;0.13;0.13;;;;;;;3.22;61.67;101379.75;5015535;28;20479;-89
2024/01/20 00:11:49;;;;;;;0.20;0.20;;;;;;;3.26;61.82;101389.13;5015714;28;20080;-90
2024/01/20 00:14:14;;;;;;;0.10;0.10;;;;;;;3.08;61.65;101376.47;4999284;28;20477;-90
2024/01/20 00:16:40;;;;;;;0.20;0.20;;;;;;;3.29;61.81;101383.13;5014971;28;20516;-88
2024/01/20 00:19:05;;;;;;;0.20;0.20;;;;;;;3.29;61.16;101419.78;4999430;28;20033;-89
2024/01/20 00:21:31;;;;;;;0.10;0.10;;;;;;;3.27;61.67;101410.44;4982799;28;20053;-88
2024/01/20 00:23:56;;;;;;;0.20;0.20;;;;;;;3.27;61.30;101434.31;5015543;28;20048;-90
2024/01/20 00:26:22;;;;;;;0.20;0.20;;;;;;;3.27;61.75;101421.50;5014823;28;20033;-88
2024/01/20 00:28:47;;;;;;;0.20;0.20;;;;;;;3.06;62.80;101421.66;4998719;28;20036;-88
2024/01/20 00:31:13;;;;;;;0.20;0.20;;;;;;;3.09;62.72;101424.19;5014711;28;20032;-89
2024/01/20 00:33:38;;;;;;;0.20;0.20;;;;;;;3.02;63.90;101430.16;4998840;28;20033;-88
2024/01/20 00:36:04;;;;;;;0.20;0.20;;;;;;;2.94;64.94;101445.53;4998576;28;20404;-91
2024/01/20 00:38:30;;;;;;;0.20;0.20;;;;;;;2.88;65.81;101448.13;4998429;28;20021;-89
2024/01/20 00:40:56;;;;;;;0.20;0.20;;;;;;;2.95;65.69;101460.03;4998665;28;20036;-92
2024/01/20 00:43:22;;;;;;;0.20;0.20;;;;;;;2.96;65.54;101464.28;5014978;28;20038;-88
2024/01/20 00:45:47;;;;;;;0.20;0.20;;;;;;;3.02;65.77;101463.41;5014283;28;20060;-88
2024/01/20 00:48:13;;;;;;;0.20;0.20;;;;;;;3.08;65.02;101466.78;5014964;28;20037;-91
2024/01/20 00:50:38;;;;;;;0.20;0.20;;;;;;;3.12;64.66;101473.56;5014751;28;20057;-90
2024/01/20 00:53:04;;;;;;;0.20;0.20;;;;;;;3.20;64.60;101470.13;5014855;28;20108;-88
2024/01/20 00:55:29;;;;;;;0.20;0.20;;;;;;;3.05;64.09;101471.94;5014678;28;20479;-89
2024/01/20 00:57:55;;;;;;;0.20;0.20;;;;;;;3.07;64.36;101483.00;5014371;28;20040;-89
2024/01/20 01:00:20;;;;;;;0.20;0.20;;;;;;;2.99;63.05;101497.50;5032057;28;20033;-89
2024/01/20 01:02:46;;;;;;;0.20;0.20;;;;;;;3.05;63.49;101502.59;5014626;28;20040;-90
2024/01/20 01:05:11;;;;;;;0.20;0.20;;;;;;;3.07;62.77;101490.66;5014224;28;20032;-91
2024/01/20 01:07:37;;;;;;;0.20;0.20;;;;;;;2.96;63.07;101461.75;4998193;28;20049;-91
2024/01/20 01:10:03;;;;;;;0.10;0.10;;;;;;;3.06;63.30;101499.19;5014411;28;20079;-89
2024/01/20 01:12:29;;;;;;;0.20;0.20;;;;;;;2.93;64.36;101483.88;5014051;28;20411;-89
2024/01/20 01:14:55;;;;;;;0.20;0.20;;;;;;;2.90;64.35;101500.09;5014229;28;20025;-89
2024/01/20 01:17:20;;;;;;;0.20;0.20;;;;;;;2.83;64.75;101503.50;5014253;28;20120;-89
2024/01/20 01:19:47;;;;;;;0.20;0.20;;;;;;;2.89;65.48;101506.06;5031235;28;20492;-89
2024/01/20 01:22:12;;;;;;;0.10;0.10;;;;;;;2.82;65.51;101499.25;4981330;28;20676;-89
2024/01/20 01:24:38;;;;;;;0.10;0.10;;;;;;;2.87;65.25;101512.88;5014380;28;20060;-89
2024/01/20 01:27:05;;;;;;;0.20;0.20;;;;;;;2.83;65.04;101517.13;5013923;28;20484;-91
2024/01/20 01:29:30;;;;;;;0.20;0.20;;;;;;;2.90;64.16;101494.97;5031589;28;20025;-88
2024/01/20 01:31:56;;;;;;;0.20;0.20;;;;;;;2.92;63.27;101506.03;4997581;28;20037;-89
2024/01/20 01:34:21;;;;;;;0.10;0.10;;;;;;;2.96;63.50;101499.22;5014150;28;20017;-89
2024/01/20 01:36:47;;;;;;;0.20;0.20;;;;;;;2.96;62.90;101502.63;5014015;28;20025;-88
2024/01/20 01:39:12;;;;;;;0.20;0.20;;;;;;;2.92;63.25;101518.81;5031129;28;20021;-88
2024/01/20 01:41:38;;;;;;;0.10;0.10;;;;;;;2.98;62.48;101511.16;4997584;28;20029;-88
2024/01/20 01:44:03;;;;;;;0.20;0.20;;;;;;;3.05;61.83;101510.28;5013964;28;20022;-89
2024/01/20 01:46:29;;;;;;;0.20;0.20;;;;;;;3.02;61.98;101517.94;4997460;28;20029;-89
2024/01/20 01:48:55;;;;;;;0.20;0.20;;;;;;;3.21;61.64;101526.38;4997723;28;20025;-89
2024/01/20 01:51:21;;;;;;;0.20;0.20;;;;;;;3.20;61.34;101531.50;5013632;28;20095;-89
2024/01/20 01:53:47;;;;;;;0.20;0.20;;;;;;;3.08;61.91;101528.16;5013643;28;20033;-90
2024/01/20 01:56:12;;;;;;;0.20;0.20;;;;;;;3.05;62.42;101515.38;5013273;28;20021;-89
2024/01/20 01:58:38;;;;;;;0.20;0.20;;;;;;;2.98;62.63;101526.47;4997457;28;20036;-90
2024/01/20 02:01:03;;;;;;;0.20;0.20;;;;;;;2.90;62.67;101517.97;5031306;28;20056;-90
2024/01/20 02:03:29;;;;;;;0.10;0.10;;;;;;;2.95;63.12;101528.19;5013464;28;20036;-88
2024/01/20 02:05:54;;;;;;;0.20;0.20;;;;;;;3.00;63.42;101529.03;5013156;28;20029;-89
2024/01/20 02:08:20;;;;;;;0.10;0.10;;;;;;;2.87;63.26;101535.88;4997043;28;20029;-90
2024/01/20 02:10:46;;;;;;;0.20;0.20;;;;;;;2.84;63.82;101541.84;5012875;28;20037;-89
2024/01/20 02:13:13;;;;;;;0.20;0.20;;;;;;;2.82;64.32;101535.03;4980638;28;20029;-89
2024/01/20 02:15:38;;;;;;;0.10;0.10;;;;;;;2.91;63.38;101540.13;4996928;28;20029;-91
2024/01/20 02:18:04;;;;;;;0.20;0.20;;;;;;;2.66;63.09;101511.25;5013336;28;20480;-88
2024/01/20 02:20:29;;;;;;;0.20;0.20;;;;;;;2.82;63.43;101555.47;5013350;28;20045;-89
2024/01/20 02:22:55;;;;;;;0.20;0.20;;;;;;;2.87;63.60;101561.44;5013173;28;20026;-89
2024/01/20 02:25:20;;;;;;;0.20;0.20;;;;;;;2.78;63.67;101554.66;4980527;28;20044;-89
2024/01/20 02:27:46;;;;;;;0.20;0.20;;;;;;;2.88;63.38;101564.00;5013698;28;20060;-87
2024/01/20 02:30:12;;;;;;;0.20;0.20;;;;;;;2.84;63.69;101574.22;5013304;28;20030;-90
2024/01/20 02:32:37;;;;;;;0.10;0.10;;;;;;;2.77;62.74;101539.31;5013424;28;20113;-89
2024/01/20 02:35:03;;;;;;;0.20;0.20;;;;;;;3.02;63.19;101581.00;4997110;28;20038;-90
2024/01/20 02:37:29;;;;;;;0.20;0.20;;;;;;;3.07;62.48;101586.97;4997146;28;20038;-89
2024/01/20 02:39:56;;;;;;;0.10;0.10;;;;;;;3.14;62.04;101579.25;4996750;28;20037;-90
2024/01/20 02:42:21;;;;;;;0.20;0.20;;;;;;;3.07;62.07;101585.25;4980704;28;20029;-89
2024/01/20 02:44:47;;;;;;;0.20;0.20;;;;;;;3.00;61.69;101585.25;5013462;28;20461;-88
2024/01/20 02:47:12;;;;;;;0.20;0.20;;;;;;;3.04;61.41;101585.25;5030901;28;20025;-89
2024/01/20 02:49:38;;;;;;;0.10;0.10;;;;;;;3.03;60.55;101595.47;5013316;28;20029;-90
2024/01/20 02:52:04;;;;;;;0.10;0.10;;;;;;;2.94;60.97;101593.78;5013666;28;20033;-89
2024/01/20 02:54:29;;;;;;;0.20;0.20;;;;;;;3.03;60.63;101601.44;4996738;28;20028;-88
2024/01/20 02:56:55;;;;;;;0.20;0.20;;;;;;;2.90;60.86;101610.00;4997058;28;21162;-88
2024/01/20 02:59:20;;;;;;;0.20;0.20;;;;;;;2.92;60.73;101607.44;4996875;28;20099;-89
2024/01/20 03:01:46;;;;;;;0.20;0.20;;;;;;;2.92;60.78;101598.06;4980840;28;20026;-89
2024/01/20 03:04:13;;;;;;;0.20;0.20;;;;;;;2.93;60.96;101597.19;4996835;28;20084;-90
2024/01/20 03:06:39;;;;;;;0.20;0.20;;;;;;;2.86;60.68;101595.53;4997269;28;20032;-91
2024/01/20 03:09:05;;;;;;;0.20;0.20;;;;;;;2.66;61.20;101562.34;5016416;28;20049;-91
2024/01/20 03:11:31;;;;;;;0.20;0.20;;;;;;;2.88;61.39;101598.94;5000552;28;20407;-90
2024/01/20 03:13:57;;;;;;;0.20;0.20;;;;;;;2.90;61.16;101615.09;5000333;28;20022;-91
2024/01/20 03:16:22;;;;;;;0.20;0.20;;;;;;;2.95;61.00;101603.19;5000225;28;20392;-88
2024/01/20 03:18:48;;;;;;;0.17;0.17;;;;;;;2.90;60.94;101604.03;5016623;28;20155;-88
2024/01/20 03:21:13;;;;;;;0.20;0.20;;;;;;;2.97;61.23;101600.63;5016343;28;20054;-88
2024/01/20 03:23:41;;;;;;;0.20;0.20;;;;;;;2.80;61.88;101609.16;5016187;28;20036;-90
2024/01/20 03:26:08;;;;;;;0.20;0.20;;;;;;;2.90;61.31;101604.88;5016438;28;20176;-90
2024/01/20 03:28:33;;;;;;;0.10;0.10;;;;;;;2.94;61.74;101621.91;5033723;28;20040;-90
2024/01/20 03:30:59;;;;;;;0.20;0.20;;;;;;;3.08;61.13;101622.75;4999803;28;20041;-88
2024/01/20 03:33:24;;;;;;;0.20;0.20;;;;;;;3.00;61.32;101636.38;4999961;28;20021;-90
2024/01/20 03:35:50;;;;;;;0.20;0.20;;;;;;;3.01;61.09;101615.94;4999684;28;20411;-90
2024/01/20 03:38:17;;;;;;;0.20;0.20;;;;;;;2.96;61.44;101598.91;4999402;28;20037;-89
2024/01/20 03:40:43;;;;;;;0.20;0.20;;;;;;;3.10;60.97;101621.03;5016344;28;20041;-89
2024/01/20 03:43:09;;;;;;;0.20;0.20;;;;;;;3.22;60.18;101632.94;4999950;28;20040;-89
2024/01/20 03:45:35;;;;;;;0.20;0.20;;;;;;;3.13;60.54;101640.63;5016022;28;20037;-92
2024/01/20 03:48:01;;;;;;;0.13;0.13;;;;;;;3.23;60.84;101638.88;5016075;28;20155;-89
2024/01/20 03:50:26;;;;;;;0.20;0.20;;;;;;;3.14;60.79;101638.06;4983664;28;20124;-88
2024/01/20 03:52:52;;;;;;;0.20;0.20;;;;;;;3.02;61.28;101627.84;4999507;28;20404;-88
2024/01/20 03:55:18;;;;;;;0.20;0.20;;;;;;;3.21;61.17;101650.84;5015773;28;20065;-90
2024/01/20 03:57:43;;;;;;;0.20;0.20;;;;;;;2.88;62.23;101616.81;5033289;28;20402;-89
2024/01/20 04:00:09;;;;;;;0.20;0.20;;;;;;;3.10;62.91;101649.16;5033273;28;20402;-89
2024/01/20 04:02:35;;;;;;;0.20;0.20;;;;;;;2.72;63.50;101633.00;4999275;28;20036;-88
2024/01/20 04:05:00;;;;;;;0.20;0.20;;;;;;;2.76;63.88;101640.69;4999537;28;20025;-90
2024/01/20 04:07:26;;;;;;;0.10;0.10;;;;;;;2.78;64.18;101635.56;5015409;28;20040;-89
2024/01/20 04:09:52;;;;;;;0.20;0.20;;;;;;;2.86;64.19;101633.88;5015463;28;20499;-90
2024/01/20 04:12:18;;;;;;;0.20;0.20;;;;;;;2.78;64.12;101625.34;4999181;28;20037;-87
2024/01/20 04:14:43;;;;;;;0.20;0.20;;;;;;;2.57;63.87;101593.84;4999227;28;20036;-90
2024/01/20 04:17:10;;;;;;;0.20;0.20;;;;;;;2.81;63.97;101630.44;5015138;28;20502;-89
2024/01/20 04:19:35;;;;;;;0.10;0.10;;;;;;;2.76;63.61;101615.13;4982132;28;20036;-91
2024/01/20 04:22:01;;;;;;;0.20;0.20;;;;;;;2.86;63.24;101633.88;5015014;28;20392;-89
2024/01/20 04:24:26;;;;;;;0.20;0.20;;;;;;;2.83;62.72;101634.69;5032971;28;20017;-90
2024/01/20 04:26:52;;;;;;;0.20;0.20;;;;;;;2.86;62.77;101639.81;5015231;28;20415;-88
2024/01/20 04:29:17;;;;;;;0.20;0.20;;;;;;;3.03;62.13;101642.34;5015397;28;20033;-93
2024/01/20 04:31:43;;;;;;;0.20;0.20;;;;;;;2.97;62.25;101615.97;4999178;28;20029;-89
2024/01/20 04:34:08;;;;;;;0.20;0.20;;;;;;;3.12;61.44;101655.09;5015160;28;20041;-90
2024/01/20 04:36:34;;;;;;;0.20;0.20;;;;;;;3.15;61.77;101647.44;4998768;28;20029;-90
2024/01/20 04:38:59;;;;;;;0.20;0.20;;;;;;;3.14;61.29;101639.75;4982610;28;20037;-88
2024/01/20 04:41:25;;;;;;;0.20;0.20;;;;;;;3.07;60.90;101638.94;5015450;28;20021;-90
2024/01/20 04:43:50;;;;;;;0.20;0.20;;;;;;;3.09;61.10;101637.22;4998457;28;20033;-88
2024/01/20 04:46:16;;;;;;;0.20;0.20;;;;;;;3.30;61.03;101672.13;5015006;28;20026;-90
2024/01/20 04:48:41;;;;;;;0.20;0.20;;;;;;;3.22;61.17;101663.63;5014902;28;20056;-89
2024/01/20 04:51:08;;;;;;;0.10;0.10;;;;;;;3.26;60.31;101657.66;5014605;28;20028;-90
2024/01/20 04:53:34;;;;;;;0.20;0.20;;;;;;;3.20;59.99;101672.16;4982341;28;20109;-91
2024/01/20 04:56:03;;;;;;;0.20;0.20;;;;;;;3.16;59.23;101679.84;5014918;28;20112;-90
2024/01/20 04:58:29;;;;;;;0.20;0.20;;;;;;;3.26;59.31;101680.66;5015168;28;20032;-89
2024/01/20 05:00:55;;;;;;;0.20;0.20;;;;;;;3.15;59.45;101698.59;4998277;28;20033;-88
2024/01/20 05:03:20;;;;;;;0.20;0.20;;;;;;;3.20;59.01;101690.06;5014898;28;20044;-90
2024/01/20 05:05:46;;;;;;;0.20;0.20;;;;;;;3.35;59.02;101715.63;5014160;28;20021;-91
2024/01/20 05:08:11;;;;;;;0.20;0.20;;;;;;;3.27;58.71;101712.22;4982113;28;20048;-89
2024/01/20 05:10:37;;;;;;;0.20;0.20;;;;;;;3.19;59.12;101690.91;4998188;28;20071;-92
2024/01/20 05:13:03;;;;;;;0.20;0.20;;;;;;;3.19;58.56;101703.69;5014401;28;20407;-90
2024/01/20 05:15:32;;;;;;;0.20;0.20;;;;;;;3.34;58.61;101729.22;5014774;28;20025;-91
2024/01/20 05:17:58;;;;;;;0.20;0.20;;;;;;;3.32;58.83;101728.38;5014319;28;20095;-89
2024/01/20 05:20:23;;;;;;;0.20;0.20;;;;;;;3.21;58.33;101707.94;5031475;28;20565;-89
2024/01/20 05:22:49;;;;;;;0.20;0.20;;;;;;;3.48;58.06;101734.34;5032134;28;20033;-90
2024/01/20 05:25:14;;;;;;;0.20;0.20;;;;;;;3.50;57.67;101736.03;5014304;28;20029;-89
2024/01/20 05:27:40;;;;;;;0.20;0.20;;;;;;;3.31;57.85;101722.41;5031641;28;20488;-90
2024/01/20 05:30:07;;;;;;;0.20;0.20;;;;;;;3.25;58.43;101735.25;5013529;28;20029;-90
2024/01/20 05:32:32;;;;;;;0.20;0.20;;;;;;;3.31;58.17;101745.44;4997870;28;20026;-88
2024/01/20 05:34:58;;;;;;;0.20;0.20;;;;;;;3.34;58.61;101747.13;5013650;28;20037;-89
2024/01/20 05:37:23;;;;;;;0.20;0.20;;;;;;;3.07;58.57;101709.69;4997731;28;20056;-91
2024/01/20 05:39:50;;;;;;;0.20;0.20;;;;;;;3.32;58.78;101759.06;4997476;28;20506;-88
2024/01/20 05:42:16;;;;;;;0.20;0.20;;;;;;;3.16;58.15;101746.31;4997634;28;20029;-90
2024/01/20 05:44:41;;;;;;;0.20;0.20;;;;;;;3.25;58.48;101759.97;5014010;28;20506;-89
2024/01/20 05:47:07;;;;;;;0.20;0.20;;;;;;;3.30;58.00;101765.91;5031630;28;20037;-89
2024/01/20 05:49:32;;;;;;;0.20;0.20;;;;;;;3.24;57.47;101769.31;4997415;28;20033;-89
2024/01/20 05:51:58;;;;;;;0.20;0.20;;;;;;;3.14;58.08;101770.16;5013982;28;20534;-88
2024/01/20 05:54:23;;;;;;;0.20;0.20;;;;;;;3.17;57.52;101757.41;5013630;28;20064;-90
2024/01/20 05:56:49;;;;;;;0.20;0.20;;;;;;;3.30;57.26;101778.69;4997569;28;20541;-90
2024/01/20 05:59:14;;;;;;;0.20;0.20;;;;;;;3.31;57.31;101786.34;4997226;28;20052;-89
2024/01/20 06:01:40;;;;;;;0.20;0.20;;;;;;;3.32;57.84;101787.22;5013495;28;20495;-90
2024/01/20 06:04:06;;;;;;;0.20;0.20;;;;;;;3.38;57.46;101782.09;4996792;28;20025;-88
2024/01/20 06:06:31;;;;;;;0.20;0.20;;;;;;;3.29;58.17;101787.22;5013010;28;20037;-89
2024/01/20 06:08:57;;;;;;;0.20;0.20;;;;;;;3.36;57.47;101805.13;4997189;28;20112;-89
2024/01/20 06:11:24;;;;;;;0.20;0.20;;;;;;;3.14;57.78;101773.56;5013851;28;20057;-93
2024/01/20 06:13:50;;;;;;;0.20;0.20;;;;;;;3.43;57.89;101813.63;5013582;28;20480;-89
2024/01/20 06:16:15;;;;;;;0.20;0.20;;;;;;;3.36;57.34;101814.50;4997300;28;20033;-89
2024/01/20 06:18:41;;;;;;;0.20;0.20;;;;;;;3.26;57.56;101812.81;5013637;28;20065;-90
2024/01/20 06:21:07;;;;;;;0.20;0.20;;;;;;;3.34;57.84;101831.53;5013478;28;20084;-90
2024/01/20 06:23:32;;;;;;;0.10;0.10;;;;;;;3.31;57.50;101841.78;5013613;28;20030;-90
2024/01/20 06:25:59;;;;;;;0.20;0.20;;;;;;;3.36;57.45;101834.97;5013752;28;20040;-90
2024/01/20 06:28:25;;;;;;;0.10;0.10;;;;;;;3.41;57.24;101849.44;5013404;28;20060;-90
2024/01/20 06:30:51;;;;;;;0.20;0.20;;;;;;;3.42;57.19;101860.53;4997307;28;20506;-89
2024/01/20 06:33:16;;;;;;;0.20;0.20;;;;;;;3.32;57.45;101853.72;5013422;28;20021;-89
2024/01/20 06:35:42;;;;;;;0.20;0.20;;;;;;;3.43;57.46;101869.91;5031234;28;20502;-90
2024/01/20 06:38:07;;;;;;;0.20;0.20;;;;;;;3.27;57.41;101842.66;5013449;28;20040;-90
2024/01/20 06:40:33;;;;;;;0.20;0.20;;;;;;;3.45;56.91;101875.91;5013693;28;20034;-89
2024/01/20 06:42:58;;;;;;;0.20;0.20;;;;;;;3.48;57.03;101875.91;5015356;28;20037;-89
2024/01/20 06:45:24;;;;;;;0.20;0.20;;;;;;;3.45;56.81;101886.16;5017229;28;20021;-90
2024/01/20 06:47:49;;;;;;;0.20;0.20;;;;;;;3.37;56.89;101895.50;5000620;28;20040;-88
2024/01/20 06:50:16;;;;;;;0.20;0.20;;;;;;;3.33;57.16;101901.47;5034659;28;20036;-89
2024/01/20 06:52:41;;;;;;;0.20;0.20;;;;;;;3.21;58.61;101891.22;5017083;28;20025;-91
2024/01/20 06:55:07;;;;;;;0.20;0.20;;;;;;;3.35;59.04;101923.66;5017187;28;20075;-90
2024/01/20 06:57:33;;;;;;;0.20;0.20;;;;;;;3.05;61.46;101937.22;5017002;28;20030;-90
2024/01/20 06:59:58;;;;;;;0.20;0.20;;;;;;;2.76;63.20;101928.59;5017355;28;20056;-88
2024/01/20 07:02:24;;;;;;;0.20;0.20;;;;;;;2.50;65.49;101931.88;5016815;28;20040;-91
2024/01/20 07:04:49;;;;;;;0.20;0.20;;;;;;;2.17;67.34;101903.63;5000852;28;20049;-90
2024/01/20 07:07:15;;;;;;;0.20;0.20;;;;;;;2.41;67.94;101952.25;5016810;28;20488;-89
2024/01/20 07:09:40;;;;;;;0.20;0.20;;;;;;;2.34;68.21;101958.16;5017055;28;20533;-89
2024/01/20 07:12:08;;;;;;;0.20;0.20;;;;;;;2.04;68.77;101935.00;5016895;28;20037;-90
2024/01/20 07:14:33;;;;;;;0.20;0.20;;;;;;;2.38;69.42;101957.38;5017091;28;20025;-89
2024/01/20 07:16:59;;;;;;;0.20;0.20;;;;;;;2.35;67.94;101962.44;5016598;28;20029;-90
2024/01/20 07:19:25;;;;;;;0.20;0.20;;;;;;;2.33;67.74;101958.16;5016714;28;20025;-89
2024/01/20 07:21:50;;;;;;;0.20;0.20;;;;;;;2.38;68.19;101967.56;5016199;28;20071;-91
2024/01/20 07:24:16;;;;;;;0.20;0.20;;;;;;;2.43;67.52;101976.09;5000252;28;20025;-89
2024/01/20 07:26:41;;;;;;;0.20;0.20;;;;;;;2.61;67.01;101969.41;5016391;28;20079;-91
2024/01/20 07:29:08;;;;;;;0.10;0.10;;;;;;;2.46;67.61;101988.03;5000073;28;20037;-90
2024/01/20 07:31:34;;;;;;;0.20;0.20;;;;;;;2.18;69.43;101948.72;5016087;28;20026;-90
2024/01/20 07:33:59;;;;;;;0.20;0.20;;;;;;;2.17;70.27;101987.88;5033898;28;20032;-89
2024/01/20 07:36:44;;;;;;;0.10;0.10;;;;;;;2.36;70.98;101999.03;5033595;28;20036;-89
2024/01/20 07:39:09;;;;;;;0.10;0.10;;;;;;;2.27;71.37;102000.72;5016252;28;20017;-91
2024/01/20 07:41:35;;;;;;;0.17;0.17;;;;;;;2.24;70.82;101993.00;5015682;28;20045;-91
2024/01/20 07:44:01;;;;;;;0.20;0.20;;;;;;;2.24;71.21;102010.88;5015947;28;20021;-91
2024/01/20 07:46:26;;;;;;;0.20;0.20;;;;;;;2.12;72.16;102028.66;5016569;28;20034;-88
2024/01/20 07:48:52;;;;;;;0.20;0.20;;;;;;;2.04;73.59;102032.84;5016143;28;20033;-90
2024/01/20 07:51:17;;;;;;;0.20;0.20;;;;;;;1.73;73.81;101993.44;5016102;28;20036;-89
2024/01/20 07:53:43;;;;;;;0.20;0.20;;;;;;;1.88;75.04;102039.53;5015979;28;20037;-89
2024/01/20 07:56:10;;;;;;;0.10;0.10;;;;;;;1.79;76.60;102051.34;5033260;28;20037;-89
2024/01/20 07:58:36;;;;;;;0.10;0.10;;;;;;;1.53;78.05;102049.34;5016149;28;20040;-89
2024/01/20 08:01:02;;;;;;;0.10;0.10;;;;;;;1.58;78.77;102039.22;4983615;28;20037;-90
2024/01/20 08:03:27;;;;;;;0.20;0.20;;;;;;;1.65;79.70;102048.63;4999802;28;20128;-89
2024/01/20 08:05:53;;;;;;;0.20;0.20;;;;;;;1.65;80.28;102043.53;5015935;28;20091;-90
2024/01/20 08:08:19;;;;;;;0.10;0.10;;;;;;;1.58;80.68;102049.44;5015915;28;20026;-90
2024/01/20 08:10:44;;;;;;;0.20;0.20;;;;;;;1.61;81.17;102047.75;5015773;28;20061;-92
2024/01/20 08:13:10;;;;;;;0.20;0.20;;;;;;;1.71;81.16;102058.91;5015710;28;20511;-90
2024/01/20 08:15:35;;;;;;;0.20;0.20;;;;;;;1.63;82.10;102061.38;4999652;28;20411;-91
2024/01/20 08:18:01;;;;;;;0.10;0.10;;;;;;;1.58;82.75;102055.38;5015782;28;20029;-89
2024/01/20 08:20:27;;;;;;;0.20;0.20;;;;;;;1.60;83.08;102071.56;5015708;28;20553;-90
2024/01/20 08:22:52;;;;;;;0.20;0.20;;;;;;;1.71;83.71;102079.31;5015903;28;20030;-91
2024/01/20 08:25:18;;;;;;;0.20;0.20;;;;;;;1.64;83.39;102082.63;5015739;28;20060;-91
2024/01/20 08:28:02;;;;;;;0.20;0.20;;;;;;;1.66;84.30;102094.56;5015246;28;20476;-89
2024/01/20 08:30:28;;;;;;;0.10;0.10;;;;;;;1.60;84.16;102093.66;5015536;28;20029;-90
2024/01/20 08:32:54;;;;;;;0.15;0.15;;;;;;;1.61;84.23;102093.66;4999833;28;20098;-91
2024/01/20 08:35:19;;;;;;;0.20;0.20;;;;;;;1.61;83.89;102092.81;4982906;28;20546;-91
2024/01/20 08:37:45;;;;;;;0.20;0.20;;;;;;;1.58;84.44;102100.44;5015233;28;20030;-91
2024/01/20 08:40:11;;;;;;;0.20;0.20;;;;;;;1.48;84.42;102096.06;5015294;28;20108;-91
2024/01/20 08:42:36;;;;;;;0.20;0.20;;;;;;;1.50;84.51;102105.44;5014839;28;20033;-91
2024/01/20 08:45:03;;;;;;;0.20;0.20;;;;;;;1.65;84.58;102120.06;5033008;28;20491;-91
2024/01/20 08:47:28;;;;;;;0.20;0.20;;;;;;;1.63;84.45;102129.41;5015867;28;20083;-91
2024/01/20 08:49:54;;;;;;;0.20;0.20;;;;;;;1.65;84.83;102128.56;5015470;28;20224;-91
2024/01/20 08:52:19;;;;;;;0.20;0.20;;;;;;;1.60;85.00;102121.72;5015449;28;20037;-93
2024/01/20 08:54:45;;;;;;;0.20;0.20;;;;;;;1.46;85.56;102108.78;5033073;28;20384;-91
2024/01/20 08:57:10;;;;;;;0.20;0.20;;;;;;;1.69;85.67;102143.09;5032528;28;20021;-91
2024/01/20 08:59:36;;;;;;;0.20;0.20;;;;;;;1.74;85.26;102148.22;5015366;28;20037;-90
2024/01/20 09:02:03;;;;;;;0.10;0.10;;;;;;;1.79;85.16;102144.06;5015575;28;20031;-91
2024/01/20 09:04:29;;;;;;;0.20;0.20;;;;;;;1.82;85.26;102149.19;5015645;28;20079;-91
2024/01/20 09:06:54;;;;;;;0.20;0.20;;;;;;;1.78;85.34;102147.44;4998768;28;20450;-90
2024/01/20 09:09:20;;;;;;;0.20;0.20;;;;;;;1.79;85.19;102144.06;5015488;28;20089;-92
2024/01/20 09:11:45;;;;;;;0.10;0.10;;;;;;;1.74;85.32;102125.28;5014916;28;20025;-91
2024/01/20 09:14:11;;;;;;;0.13;0.13;;;;;;;1.90;85.15;102150.13;4998945;28;20525;-92
2024/01/20 09:16:36;;;;;;;0.20;0.20;;;;;;;1.81;85.05;102149.16;5015106;28;20419;-91
2024/01/20 09:19:02;;;;;;;0.20;0.20;;;;;;;1.79;85.08;102144.06;4999257;28;20475;-91
2024/01/20 09:21:27;;;;;;;0.20;0.20;;;;;;;1.83;85.47;102161.09;5014934;28;20049;-90
2024/01/20 09:23:53;;;;;;;0.20;0.20;;;;;;;1.83;86.00;102165.34;5015442;28;20079;-91
2024/01/20 09:26:18;;;;;;;0.20;0.20;;;;;;;1.78;86.02;102165.31;5014814;28;20037;-92
2024/01/20 09:28:44;;;;;;;0.20;0.20;;;;;;;1.72;85.49;102144.81;5015442;28;20037;-92
2024/01/20 09:31:09;;;;;;;0.10;0.10;;;;;;;1.92;86.03;102171.41;5015875;28;20033;-90
2024/01/20 09:33:35;;;;;;;0.20;0.20;;;;;;;1.90;86.07;102167.13;4999324;28;20022;-91
2024/01/20 09:36:02;;;;;;;0.20;0.20;;;;;;;1.99;85.33;102185.97;5015515;28;20040;-89
2024/01/20 09:38:28;;;;;;;0.20;0.20;;;;;;;2.05;85.10;102172.41;5015498;28;20026;-92
2024/01/20 09:40:56;;;;;;;0.20;0.20;;;;;;;2.12;85.28;102181.00;5014415;28;20026;-91
2024/01/20 09:43:22;;;;;;;0.20;0.20;;;;;;;2.21;85.16;102183.63;5014711;28;20029;-91
2024/01/20 09:45:47;;;;;;;0.20;0.20;;;;;;;2.28;83.73;102181.16;4998258;28;20040;-91
2024/01/20 09:48:13;;;;;;;0.20;0.20;;;;;;;2.14;83.71;102163.97;4981945;28;20060;-89
2024/01/20 09:50:38;;;;;;;0.20;0.20;;;;;;;2.19;84.08;102177.66;5032045;28;20028;-91
2024/01/20 09:53:14;;;;;;;0.20;0.20;;;;;;;2.21;83.49;102183.63;4997969;28;20033;-91
2024/01/20 09:55:41;;;;;;;0.20;0.20;;;;;;;2.25;84.21;102198.13;5014113;28;20023;-91
2024/01/20 09:58:07;;;;;;;0.20;0.20;;;;;;;2.23;84.30;102197.28;5013857;28;20120;-91
2024/01/20 10:00:32;;;;;;;0.20;0.20;;;;;;;2.21;84.56;102193.84;5014331;28;20113;-89
2024/01/20 10:03:00;;;;;;;0.20;0.20;;;;;;;2.21;84.04;102193.84;4998046;28;20033;-90
2024/01/20 10:05:26;;;;;;;0.20;0.20;;;;;;;2.31;83.87;102200.78;4998566;28;20124;-90
2024/01/20 10:07:51;;;;;;;0.20;0.20;;;;;;;2.30;84.01;102207.56;5014473;28;20101;-91
2024/01/20 10:10:21;;;;;;;0.20;0.20;;;;;;;2.29;83.92;102207.56;5013904;28;20017;-92
2024/01/20 10:12:48;;;;;;;0.20;0.20;;;;;;;2.37;84.01;102215.31;4982221;28;20087;-93
2024/01/20 10:15:14;;;;;;;0.20;0.20;;;;;;;2.42;83.98;102218.75;4998127;28;20079;-92
2024/01/20 10:17:39;;;;;;;0.20;0.20;;;;;;;2.47;83.59;102223.09;5015629;28;20029;-92
2024/01/20 10:20:05;;;;;;;0.20;0.20;;;;;;;2.46;83.74;102223.94;5017865;28;20054;-92
2024/01/20 10:22:31;;;;;;;0.20;0.20;;;;;;;2.36;83.77;102219.56;5018192;28;20079;-91
2024/01/20 10:24:56;;;;;;;0.20;0.20;;;;;;;2.34;84.11;102220.38;5001595;28;20056;-91
2024/01/20 10:27:25;;;;;;;0.20;0.20;;;;;;;2.34;84.00;102236.53;5018329;28;20040;-92
2024/01/20 10:29:51;;;;;;;0.20;0.20;;;;;;;2.11;83.80;102212.47;5018281;28;20026;-91
2024/01/20 10:32:16;;;;;;;0.20;0.20;;;;;;;2.09;84.24;102250.75;5018075;28;20040;-91
2024/01/20 10:34:42;;;;;;;0.20;0.20;;;;;;;2.09;84.40;102253.31;5018183;28;20059;-91
2024/01/20 10:37:14;;;;;;;0.20;0.20;;;;;;;2.04;83.83;102254.06;5017882;28;20029;-89
2024/01/20 10:39:44;;;;;;;0.20;0.20;;;;;;;1.60;84.07;102234.81;5017819;28;20040;-91
2024/01/20 10:42:12;;;;;;;0.20;0.20;;;;;;;1.74;84.25;102260.50;5017593;28;20502;-90
2024/01/20 10:44:42;;;;;;;0.20;0.20;;;;;;;1.66;84.83;102249.31;4985928;28;20645;-90
2024/01/20 10:47:15;;;;;;;0.20;0.20;;;;;;;1.76;84.56;102266.47;5001520;28;20025;-90
2024/01/20 10:49:43;;;;;;;0.20;0.20;;;;;;;1.70;84.05;102281.72;5001441;28;20113;-92
2024/01/20 10:52:08;;;;;;;0.10;0.10;;;;;;;1.69;84.99;102290.22;5001779;28;20037;-90
2024/01/20 10:54:34;;;;;;;0.20;0.20;;;;;;;1.70;85.16;102282.56;5017452;28;20021;-91
2024/01/20 10:56:59;;;;;;;0.20;0.20;;;;;;;1.68;85.01;102289.34;5001437;28;20032;-90
2024/01/20 10:59:25;;;;;;;0.20;0.20;;;;;;;1.63;85.05;102279.91;5001483;28;20033;-91
2024/01/20 11:01:50;;;;;;;0.20;0.20;;;;;;;1.67;85.15;102299.50;4985725;28;20380;-92
2024/01/20 11:04:19;;;;;;;0.20;0.20;;;;;;;1.65;85.37;102291.84;5001369;28;20033;-91
2024/01/20 11:06:45;;;;;;;0.20;0.20;;;;;;;1.75;85.35;102305.59;5001446;28;20503;-88
2024/01/20 11:09:19;;;;;;;0.20;0.20;;;;;;;1.64;84.85;102286.72;5017606;28;20052;-92
2024/01/20 11:12:09;;;;;;;0.20;0.20;;;;;;;1.71;85.21;102314.91;4984986;28;20040;-90
2024/01/20 11:14:34;;;;;;;0.20;0.20;;;;;;;1.51;84.55;102305.25;4986772;28;20487;-92
2024/01/20 11:17:11;;;;;;;0.20;0.20;;;;;;;1.60;85.47;102305.38;5017166;28;20044;-91
2024/01/20 11:19:36;;;;;;;0.20;0.20;;;;;;;1.70;85.19;102312.34;5001455;28;20075;-89
2024/01/20 11:22:02;;;;;;;0.20;0.20;;;;;;;1.71;85.52;102303.84;5000553;28;20022;-90
2024/01/20 11:24:43;;;;;;;0.10;0.10;;;;;;;1.72;85.07;102313.22;5001348;28;20039;-91
2024/01/20 11:27:09;;;;;;;0.20;0.20;;;;;;;1.73;84.80;102314.91;5001119;28;20411;-92
2024/01/20 11:29:34;;;;;;;0.20;0.20;;;;;;;1.70;85.11;102322.53;5034357;28;20030;-90